Time;durP1;ratioP1;P1;durP2;ratioP2;P2;SDS_P1;SDS_P2;PMS_P1;PMS_P2;Temp;Humidity;BMP_temperature;BMP_pressure;BME280_temperature;BME280_humidity;BME280_pressure;Samples;Min_cycle;Max_cycle;Signal;HPM_P1;HPM_P2
2021/12/23 00:01:10;;;;;;;28.73;16.02;;;1.80;93.90;;;;;;4975747;28;20049;-69
2021/12/23 00:03:36;;;;;;;31.15;17.17;;;1.80;93.90;;;;;;4975170;28;20109;-68
2021/12/23 00:06:02;;;;;;;30.40;16.00;;;1.80;93.90;;;;;;4971136;28;20039;-69
2021/12/23 00:08:27;;;;;;;25.73;16.02;;;1.80;93.90;;;;;;4971663;28;20034;-68
2021/12/23 00:10:53;;;;;;;26.73;15.32;;;1.80;93.90;;;;;;4974633;28;20030;-69
2021/12/23 00:13:19;;;;;;;29.88;17.42;;;1.80;93.90;;;;;;4975314;28;20023;-69
2021/12/23 00:23:50;;;;;;;30.67;15.95;;;1.70;93.90;;;;;;4974137;28;20038;-68
2021/12/23 00:26:15;;;;;;;29.63;14.90;;;1.70;93.90;;;;;;4974635;28;20031;-68
2021/12/23 00:28:41;;;;;;;25.13;14.10;;;1.70;93.90;;;;;;4974640;28;20031;-68
2021/12/23 00:31:07;;;;;;;26.95;15.23;;;1.60;94.00;;;;;;4974252;28;20508;-68
2021/12/23 00:33:35;;;;;;;26.27;15.32;;;1.60;93.90;;;;;;4975132;28;20035;-68
2021/12/23 00:36:03;;;;;;;24.55;15.13;;;1.60;94.00;;;;;;4973368;28;20023;-69
2021/12/23 00:38:32;;;;;;;27.23;15.55;;;1.60;94.00;;;;;;4974925;28;20114;-69
2021/12/23 00:41:01;;;;;;;31.73;16.33;;;1.60;94.00;;;;;;4964591;28;20037;-69
2021/12/23 00:43:27;;;;;;;27.80;15.57;;;1.60;94.00;;;;;;4973468;28;20027;-69
2021/12/23 00:45:53;;;;;;;24.77;15.55;;;1.60;94.00;;;;;;4969165;28;20040;-69
2021/12/23 00:48:18;;;;;;;25.38;15.15;;;1.60;94.00;;;;;;4955726;28;20386;-69
2021/12/23 00:50:46;;;;;;;26.17;14.75;;;1.50;94.00;;;;;;4971145;28;20053;-69
2021/12/23 00:53:16;;;;;;;29.75;15.40;;;1.60;94.00;;;;;;4974778;28;20471;-69
2021/12/23 00:55:41;;;;;;;26.90;15.43;;;1.60;94.00;;;;;;4973476;28;20038;-69
2021/12/23 00:58:07;;;;;;;29.55;16.92;;;1.50;94.00;;;;;;4974487;28;20023;-69
2021/12/23 01:00:33;;;;;;;29.13;16.02;;;1.50;94.00;;;;;;4972639;28;20066;-69
2021/12/23 01:03:00;;;;;;;27.50;15.50;;;1.50;94.00;;;;;;4974582;28;20030;-69
2021/12/23 01:05:26;;;;;;;28.63;16.42;;;1.40;94.00;;;;;;4972454;28;20046;-69
2021/12/23 01:07:52;;;;;;;27.67;16.80;;;1.40;94.10;;;;;;4974117;28;20089;-69
2021/12/23 01:10:18;;;;;;;27.45;15.25;;;1.50;94.10;;;;;;4961490;28;20027;-69
2021/12/23 01:12:48;;;;;;;27.13;16.30;;;1.40;94.10;;;;;;4973038;28;20035;-69
2021/12/23 01:15:37;;;;;;;29.35;16.70;;;1.40;94.10;;;;;;4972681;28;20457;-69
2021/12/23 01:18:19;;;;;;;27.83;17.00;;;1.40;94.10;;;;;;4973439;28;20030;-69
2021/12/23 01:21:03;;;;;;;36.15;16.83;;;1.40;94.10;;;;;;4973100;28;20069;-69
2021/12/23 01:23:29;;;;;;;37.65;17.77;;;1.30;94.10;;;;;;4974185;28;20441;-69
2021/12/23 01:25:55;;;;;;;30.85;17.05;;;1.30;94.10;;;;;;4958602;28;20082;-69
2021/12/23 01:28:21;;;;;;;31.58;16.40;;;1.40;94.20;;;;;;4973318;28;20476;-69
2021/12/23 01:30:47;;;;;;;30.55;16.67;;;1.40;94.20;;;;;;4970278;28;20023;-69
2021/12/23 01:33:13;;;;;;;27.92;16.83;;;1.40;94.20;;;;;;4973619;28;20022;-69
2021/12/23 01:35:39;;;;;;;31.95;16.30;;;1.40;94.20;;;;;;4958514;28;20027;-69
2021/12/23 01:38:05;;;;;;;30.00;16.85;;;1.40;94.20;;;;;;4954412;28;20031;-69
2021/12/23 01:40:31;;;;;;;26.98;16.33;;;1.40;94.10;;;;;;4956362;28;20103;-69
2021/12/23 01:42:57;;;;;;;30.30;16.80;;;1.40;94.20;;;;;;4964622;28;20495;-69
2021/12/23 01:45:27;;;;;;;29.55;16.58;;;1.30;94.20;;;;;;4960662;28;20606;-68
2021/12/23 01:47:53;;;;;;;26.73;15.20;;;1.40;94.20;;;;;;4954295;28;20023;-69
2021/12/23 01:50:25;;;;;;;29.27;17.10;;;1.40;94.20;;;;;;4966295;28;20030;-68
2021/12/23 01:52:51;;;;;;;28.63;16.63;;;1.40;94.20;;;;;;4969677;28;20030;-70
2021/12/23 01:55:16;;;;;;;31.55;17.75;;;1.40;94.20;;;;;;4972501;28;20378;-69
2021/12/23 01:57:44;;;;;;;29.85;16.70;;;1.30;94.20;;;;;;4973435;28;20030;-68
2021/12/23 02:00:13;;;;;;;27.05;16.38;;;1.30;94.20;;;;;;4971217;28;20035;-68
2021/12/23 02:02:39;;;;;;;28.95;17.08;;;1.30;94.20;;;;;;4954164;28;20031;-68
2021/12/23 02:05:06;;;;;;;29.92;16.42;;;1.30;94.20;;;;;;4968387;28;20045;-68
2021/12/23 02:07:31;;;;;;;24.48;14.77;;;1.30;94.20;;;;;;4973457;28;20026;-68
2021/12/23 02:09:57;;;;;;;29.38;16.08;;;1.30;94.20;;;;;;4966460;28;20042;-68
2021/12/23 02:12:23;;;;;;;26.08;15.82;;;1.30;94.30;;;;;;4972561;28;20031;-68
2021/12/23 02:14:49;;;;;;;29.65;18.00;;;1.30;94.30;;;;;;4972035;28;20065;-68
2021/12/23 02:17:14;;;;;;;28.92;18.10;;;1.30;94.20;;;;;;4973005;28;20114;-68
2021/12/23 02:19:40;;;;;;;22.92;14.75;;;1.20;94.30;;;;;;4971760;28;20035;-69
2021/12/23 02:22:05;;;;;;;32.38;16.10;;;1.30;94.30;;;;;;4972168;28;20462;-69
2021/12/23 02:24:31;;;;;;;30.00;16.70;;;1.20;94.30;;;;;;4964798;28;20090;-69
2021/12/23 02:26:56;;;;;;;30.60;16.45;;;1.30;94.30;;;;;;4972554;28;20038;-69
2021/12/23 02:29:22;;;;;;;29.20;15.93;;;1.20;94.20;;;;;;4970503;28;20033;-69
2021/12/23 02:31:49;;;;;;;27.80;15.45;;;1.20;94.20;;;;;;4964490;28;20433;-69
2021/12/23 02:34:19;;;;;;;30.17;16.50;;;1.20;94.30;;;;;;4970148;28;20077;-69
2021/12/23 02:36:53;;;;;;;26.10;16.13;;;1.20;94.30;;;;;;4970023;28;20022;-69
2021/12/23 02:39:21;;;;;;;23.80;15.38;;;1.20;94.30;;;;;;4972290;28;20031;-68
2021/12/23 02:41:47;;;;;;;29.50;16.80;;;1.30;94.30;;;;;;4971948;28;20038;-69
2021/12/23 02:44:13;;;;;;;30.90;15.82;;;1.20;94.30;;;;;;4971445;28;20042;-68
2021/12/23 02:46:38;;;;;;;30.25;17.98;;;1.30;94.30;;;;;;4972374;28;20395;-69
2021/12/23 02:49:04;;;;;;;26.88;15.82;;;1.30;94.30;;;;;;4971842;28;20015;-69
2021/12/23 02:51:30;;;;;;;29.52;16.50;;;1.20;94.40;;;;;;4970986;28;20493;-68
2021/12/23 02:53:55;;;;;;;27.25;16.10;;;1.30;94.30;;;;;;4971728;28;20081;-69
2021/12/23 02:56:21;;;;;;;29.80;18.17;;;1.20;94.20;;;;;;4969768;28;20034;-68
2021/12/23 02:58:47;;;;;;;32.63;17.48;;;1.20;94.50;;;;;;4970919;28;20023;-68
2021/12/23 03:01:14;;;;;;;27.63;16.25;;;1.20;94.30;;;;;;4970053;28;20047;-68
2021/12/23 03:03:40;;;;;;;29.88;17.80;;;1.20;94.30;;;;;;4972051;28;20065;-69
2021/12/23 03:06:06;;;;;;;31.42;18.48;;;1.20;94.30;;;;;;4970622;28;20042;-68
2021/12/23 03:08:38;;;;;;;31.63;16.73;;;1.20;94.30;;;;;;4972020;28;20438;-69
2021/12/23 03:11:05;;;;;;;29.65;17.35;;;1.20;94.30;;;;;;4971085;28;20035;-68
2021/12/23 03:13:32;;;;;;;31.52;17.88;;;1.20;94.30;;;;;;4971980;28;20027;-69
2021/12/23 03:15:58;;;;;;;34.70;18.33;;;1.20;94.30;;;;;;4969367;28;20513;-68
2021/12/23 03:18:24;;;;;;;32.05;18.00;;;1.10;94.30;;;;;;4954957;28;20039;-68
2021/12/23 03:20:50;;;;;;;32.17;17.73;;;1.20;94.30;;;;;;4957800;28;20363;-68
2021/12/23 03:23:15;;;;;;;31.45;18.25;;;1.10;94.30;;;;;;4971236;28;20798;-68
2021/12/23 03:25:41;;;;;;;30.77;17.75;;;1.20;94.30;;;;;;4962120;28;20039;-69
2021/12/23 03:28:06;;;;;;;34.83;18.40;;;1.10;94.30;;;;;;4969521;28;20057;-68
2021/12/23 03:30:32;;;;;;;33.30;18.33;;;1.20;94.30;;;;;;4968967;28;20077;-69
2021/12/23 03:32:57;;;;;;;31.88;19.67;;;1.20;94.30;;;;;;4952363;29;20028;-69
2021/12/23 03:35:23;;;;;;;32.45;18.70;;;1.20;94.30;;;;;;4966723;28;20430;-68
2021/12/23 03:37:48;;;;;;;30.10;18.27;;;1.20;94.30;;;;;;4970797;28;20027;-68
2021/12/23 03:40:14;;;;;;;29.20;17.02;;;1.10;94.30;;;;;;4971049;28;20054;-68
2021/12/23 03:42:40;;;;;;;29.52;17.38;;;1.20;94.40;;;;;;4970893;28;20121;-68
2021/12/23 03:45:07;;;;;;;33.25;18.98;;;1.20;94.40;;;;;;4974886;28;20035;-68
2021/12/23 03:47:34;;;;;;;33.83;19.40;;;1.20;94.40;;;;;;4974638;28;20027;-68
2021/12/23 03:50:00;;;;;;;33.65;18.75;;;1.20;94.40;;;;;;4990476;28;20039;-69
2021/12/23 03:52:25;;;;;;;34.75;19.92;;;1.20;94.40;;;;;;4974529;28;20405;-68
2021/12/23 03:54:51;;;;;;;31.27;17.20;;;1.20;94.40;;;;;;4975332;28;20117;-68
2021/12/23 03:57:16;;;;;;;35.78;19.13;;;1.20;94.40;;;;;;4972789;28;20126;-68
2021/12/23 03:59:42;;;;;;;36.40;20.02;;;1.20;94.40;;;;;;4975092;28;20054;-67
2021/12/23 04:02:08;;;;;;;33.75;19.48;;;1.10;94.40;;;;;;4972987;28;20037;-68
2021/12/23 04:04:33;;;;;;;34.10;19.25;;;1.20;94.40;;;;;;4974141;28;20050;-69
2021/12/23 04:06:59;;;;;;;33.33;18.60;;;1.20;94.40;;;;;;4973861;28;20023;-68
2021/12/23 04:09:24;;;;;;;32.33;18.23;;;1.20;94.40;;;;;;4974236;28;20433;-69
2021/12/23 04:11:50;;;;;;;31.80;18.73;;;1.20;94.40;;;;;;4973117;28;20105;-68
2021/12/23 04:14:15;;;;;;;30.13;18.48;;;1.20;94.40;;;;;;4970962;28;20027;-68
2021/12/23 04:16:41;;;;;;;31.98;18.67;;;1.20;94.40;;;;;;4956570;28;20032;-68
2021/12/23 04:19:09;;;;;;;33.58;19.35;;;1.20;94.40;;;;;;4955710;28;20035;-68
2021/12/23 04:21:35;;;;;;;35.33;19.15;;;1.10;94.40;;;;;;4968678;28;20035;-69
2021/12/23 04:24:01;;;;;;;36.47;19.77;;;1.20;94.40;;;;;;4973125;28;20022;-68
2021/12/23 04:26:26;;;;;;;34.88;19.20;;;1.20;94.40;;;;;;4973691;28;20035;-68
2021/12/23 04:28:52;;;;;;;32.40;18.83;;;1.20;94.30;;;;;;4974206;28;20447;-68
2021/12/23 04:31:20;;;;;;;31.05;17.73;;;1.10;94.40;;;;;;4972858;28;20035;-69
2021/12/23 04:33:48;;;;;;;34.78;20.20;;;1.20;94.40;;;;;;4973636;28;20074;-69
2021/12/23 04:36:15;;;;;;;33.63;17.65;;;1.20;94.40;;;;;;4972932;28;20027;-69
2021/12/23 04:38:41;;;;;;;36.33;19.15;;;1.10;94.40;;;;;;4973093;28;20062;-68
2021/12/23 04:41:08;;;;;;;34.47;18.30;;;1.10;94.40;;;;;;4973671;28;20033;-69
2021/12/23 04:43:34;;;;;;;32.10;19.42;;;1.10;94.40;;;;;;4974669;28;20027;-68
2021/12/23 04:46:00;;;;;;;33.20;18.95;;;1.20;94.40;;;;;;4972617;28;20482;-69
2021/12/23 04:48:26;;;;;;;32.22;17.77;;;1.20;94.50;;;;;;4974203;28;20429;-69
2021/12/23 04:50:52;;;;;;;37.70;20.25;;;1.20;94.50;;;;;;4972174;28;20049;-69
2021/12/23 04:53:17;;;;;;;35.88;19.15;;;1.20;94.50;;;;;;4974833;28;20026;-69
2021/12/23 04:55:43;;;;;;;34.97;20.52;;;1.20;94.40;;;;;;4970826;28;20027;-68
2021/12/23 04:58:09;;;;;;;39.88;20.15;;;1.20;94.40;;;;;;4973791;28;20446;-68
2021/12/23 05:00:34;;;;;;;30.15;19.40;;;1.20;94.40;;;;;;4959157;28;20042;-68
2021/12/23 05:03:00;;;;;;;32.63;19.33;;;1.20;94.40;;;;;;4974367;28;20026;-68
2021/12/23 05:05:26;;;;;;;36.60;20.73;;;1.20;94.40;;;;;;4972413;28;20043;-68
2021/12/23 05:07:51;;;;;;;35.38;17.60;;;1.20;94.40;;;;;;4973288;28;20019;-68
2021/12/23 05:10:17;;;;;;;32.67;19.80;;;1.20;94.40;;;;;;4971481;28;20034;-69
2021/12/23 05:12:44;;;;;;;34.10;19.02;;;1.30;94.50;;;;;;4954920;29;20024;-68
2021/12/23 05:15:15;;;;;;;34.53;18.95;;;1.30;94.40;;;;;;4958878;28;20038;-68
2021/12/23 05:17:41;;;;;;;35.03;18.75;;;1.30;94.40;;;;;;4973281;28;20061;-68
2021/12/23 05:20:09;;;;;;;37.03;18.75;;;1.30;94.40;;;;;;4972512;28;20038;-67
2021/12/23 05:22:34;;;;;;;31.20;17.88;;;1.30;94.40;;;;;;4972941;28;20218;-66
2021/12/23 05:25:00;;;;;;;36.65;19.60;;;1.30;94.40;;;;;;4972972;28;20034;-67
2021/12/23 05:27:26;;;;;;;34.10;18.95;;;1.30;94.40;;;;;;4966083;28;20054;-68
2021/12/23 05:29:51;;;;;;;36.60;19.88;;;1.30;94.40;;;;;;4963036;28;20371;-68
2021/12/23 05:32:16;;;;;;;31.80;18.58;;;1.30;94.40;;;;;;4971669;28;20429;-68
2021/12/23 05:34:42;;;;;;;33.13;18.63;;;1.40;94.40;;;;;;4958450;28;20043;-68
2021/12/23 05:37:07;;;;;;;32.05;18.55;;;1.40;94.40;;;;;;4969265;28;20066;-68
2021/12/23 05:39:33;;;;;;;31.23;17.50;;;1.40;94.40;;;;;;4972141;28;20027;-69
2021/12/23 05:41:59;;;;;;;35.45;19.75;;;1.40;94.30;;;;;;4972278;28;20039;-69
2021/12/23 05:44:24;;;;;;;34.25;19.60;;;1.40;94.40;;;;;;4960575;28;20035;-69
2021/12/23 05:46:49;;;;;;;32.60;18.65;;;1.40;94.40;;;;;;4966302;28;20490;-68
2021/12/23 05:49:15;;;;;;;34.17;18.83;;;1.40;94.40;;;;;;4973071;28;20381;-68
2021/12/23 05:51:41;;;;;;;33.17;18.40;;;1.40;94.40;;;;;;4971005;28;20034;-68
2021/12/23 05:54:07;;;;;;;36.58;19.52;;;1.50;94.40;;;;;;4973309;28;20022;-68
2021/12/23 05:56:32;;;;;;;29.55;18.08;;;1.50;94.30;;;;;;4970647;28;20466;-68
2021/12/23 05:58:58;;;;;;;39.50;20.40;;;1.50;94.30;;;;;;4973271;28;20022;-68
2021/12/23 06:01:24;;;;;;;34.88;19.83;;;1.50;94.30;;;;;;4971747;28;20105;-69
2021/12/23 06:03:50;;;;;;;34.33;19.80;;;1.50;94.30;;;;;;4973199;28;20031;-68
2021/12/23 06:06:16;;;;;;;33.72;18.90;;;1.50;94.30;;;;;;4969628;28;20066;-69
2021/12/23 06:08:42;;;;;;;30.30;17.85;;;1.50;94.30;;;;;;4971788;28;20049;-68
2021/12/23 06:11:08;;;;;;;35.50;19.20;;;1.50;94.30;;;;;;4965282;28;20046;-69
2021/12/23 06:13:34;;;;;;;33.95;19.42;;;1.50;94.30;;;;;;4971704;28;20043;-68
2021/12/23 06:15:59;;;;;;;31.33;18.10;;;1.50;94.30;;;;;;4971701;28;20042;-69
2021/12/23 06:18:25;;;;;;;34.75;19.50;;;1.60;94.30;;;;;;4972898;28;20110;-69
2021/12/23 06:20:51;;;;;;;37.20;19.65;;;1.60;94.30;;;;;;4971845;28;20106;-68
2021/12/23 06:23:16;;;;;;;35.42;19.58;;;1.60;94.30;;;;;;4963016;28;20028;-68
2021/12/23 06:25:42;;;;;;;35.90;19.83;;;1.60;94.30;;;;;;4954273;28;20090;-68
2021/12/23 06:28:07;;;;;;;29.88;17.92;;;1.60;94.20;;;;;;4961479;28;20073;-68
2021/12/23 06:30:33;;;;;;;34.22;19.73;;;1.60;94.30;;;;;;4971942;28;20034;-68
2021/12/23 06:32:58;;;;;;;32.13;17.35;;;1.60;94.20;;;;;;4971374;28;20257;-68
2021/12/23 06:35:27;;;;;;;36.50;21.35;;;1.70;94.30;;;;;;4971190;28;20089;-64
2021/12/23 06:37:53;;;;;;;29.50;17.23;;;1.70;94.20;;;;;;4958498;28;20435;-68
2021/12/23 06:40:19;;;;;;;48.47;19.95;;;1.70;94.20;;;;;;4963899;28;20034;-69
2021/12/23 06:42:45;;;;;;;34.08;20.10;;;1.80;94.20;;;;;;4972432;28;20034;-69
2021/12/23 06:45:11;;;;;;;32.33;16.90;;;1.70;94.20;;;;;;4971699;28;20042;-68
2021/12/23 06:47:36;;;;;;;31.10;17.40;;;1.70;94.20;;;;;;4971367;28;20497;-68
2021/12/23 06:50:04;;;;;;;32.45;18.70;;;1.70;94.20;;;;;;4972810;28;20093;-67
2021/12/23 06:52:31;;;;;;;34.35;19.23;;;1.80;94.10;;;;;;4969393;28;20085;-68
2021/12/23 06:54:57;;;;;;;29.10;17.17;;;1.70;94.10;;;;;;4971267;28;20027;-69
2021/12/23 06:57:25;;;;;;;32.45;18.98;;;1.80;94.10;;;;;;4971593;28;20057;-69
2021/12/23 06:59:50;;;;;;;31.85;17.70;;;1.80;94.10;;;;;;4971251;28;20069;-68
2021/12/23 07:02:17;;;;;;;36.35;20.55;;;1.80;94.10;;;;;;4971210;28;20145;-67
2021/12/23 07:04:44;;;;;;;44.13;19.05;;;1.80;94.10;;;;;;4965612;28;20027;-68
2021/12/23 07:07:10;;;;;;;37.90;18.13;;;1.80;94.10;;;;;;4968067;28;20525;-68
2021/12/23 07:09:38;;;;;;;29.67;18.05;;;1.80;94.10;;;;;;4972355;28;20459;-68
2021/12/23 07:12:06;;;;;;;31.52;18.02;;;1.80;94.00;;;;;;4956385;28;20035;-65
2021/12/23 07:14:31;;;;;;;33.22;19.17;;;1.80;94.20;;;;;;4952461;28;20055;-64
2021/12/23 07:16:57;;;;;;;30.45;17.48;;;1.80;93.90;;;;;;4964397;28;20058;-63
2021/12/23 07:19:22;;;;;;;32.78;18.02;;;1.80;93.90;;;;;;4966216;28;23039;-64
2021/12/23 07:21:48;;;;;;;31.88;17.85;;;1.90;94.00;;;;;;4964139;28;20042;-64
2021/12/23 07:24:13;;;;;;;28.35;16.83;;;1.90;94.00;;;;;;4962099;28;20379;-64
2021/12/23 07:26:39;;;;;;;31.00;18.23;;;1.90;94.00;;;;;;4963143;28;20498;-65
2021/12/23 07:29:05;;;;;;;36.95;18.40;;;1.90;94.00;;;;;;4956943;28;20337;-66
2021/12/23 07:31:30;;;;;;;31.77;18.27;;;1.90;94.00;;;;;;4952905;28;20114;-66
2021/12/23 07:33:56;;;;;;;28.40;17.75;;;2.00;94.00;;;;;;4964449;28;20062;-67
2021/12/23 07:36:24;;;;;;;33.40;16.75;;;2.00;93.90;;;;;;4953264;28;20376;-66
2021/12/23 07:38:49;;;;;;;35.03;17.92;;;2.00;93.90;;;;;;4959887;28;20026;-66
2021/12/23 07:41:15;;;;;;;30.85;17.65;;;2.10;93.90;;;;;;4964527;28;20039;-66
2021/12/23 07:46:07;;;;;;;31.20;17.63;;;2.00;93.80;;;;;;4970124;28;20050;-66
2021/12/23 07:48:34;;;;;;;31.65;16.73;;;2.10;93.80;;;;;;4970156;28;20035;-66
2021/12/23 07:51:01;;;;;;;29.13;17.50;;;2.10;93.80;;;;;;4960009;28;20043;-66
2021/12/23 07:53:27;;;;;;;30.05;16.92;;;2.10;93.80;;;;;;4968627;28;20031;-66
2021/12/23 07:55:53;;;;;;;32.35;17.92;;;2.10;93.70;;;;;;4970452;28;20081;-66
2021/12/23 07:58:18;;;;;;;29.77;16.83;;;2.10;93.90;;;;;;4957118;28;20035;-66
2021/12/23 08:00:44;;;;;;;32.28;17.75;;;2.20;93.70;;;;;;4976449;28;20059;-66
2021/12/23 08:03:10;;;;;;;33.53;17.85;;;2.20;93.70;;;;;;4960261;28;20057;-66
2021/12/23 08:05:36;;;;;;;33.00;17.77;;;2.20;93.60;;;;;;4958688;28;20050;-66
2021/12/23 08:08:02;;;;;;;32.53;18.55;;;2.10;93.60;;;;;;4959578;28;20391;-64
2021/12/23 08:10:28;;;;;;;30.60;16.95;;;2.20;93.60;;;;;;4961566;28;20031;-63
2021/12/23 08:12:54;;;;;;;33.42;18.38;;;2.20;93.50;;;;;;4948037;28;20326;-65
2021/12/23 08:15:19;;;;;;;30.42;17.75;;;2.30;93.50;;;;;;4969809;28;20071;-64
2021/12/23 08:17:45;;;;;;;34.63;19.10;;;2.30;93.50;;;;;;4971459;28;20371;-65
2021/12/23 08:20:12;;;;;;;31.75;17.90;;;2.40;93.50;;;;;;4967905;28;20045;-66
2021/12/23 08:22:38;;;;;;;31.25;17.45;;;2.40;93.40;;;;;;4970036;28;20109;-66
2021/12/23 08:25:04;;;;;;;30.15;16.48;;;2.40;93.40;;;;;;4969828;28;20134;-66
2021/12/23 08:27:31;;;;;;;31.58;16.02;;;2.40;93.40;;;;;;4970162;28;20035;-66
2021/12/23 08:29:56;;;;;;;28.95;17.02;;;2.50;93.40;;;;;;4970963;28;20039;-66
2021/12/23 08:32:23;;;;;;;31.33;16.45;;;2.50;93.40;;;;;;4967936;28;20035;-66
2021/12/23 08:34:49;;;;;;;30.63;17.80;;;2.50;93.30;;;;;;4971781;28;20110;-66
2021/12/23 08:37:15;;;;;;;27.63;16.05;;;2.50;93.30;;;;;;4968048;28;20130;-66
2021/12/23 08:39:41;;;;;;;27.75;16.52;;;2.50;93.30;;;;;;4973781;28;20034;-64
2021/12/23 08:42:08;;;;;;;29.80;16.45;;;2.50;93.30;;;;;;4972385;28;20034;-66
2021/12/23 08:44:34;;;;;;;32.00;17.48;;;2.50;93.30;;;;;;4973987;28;20030;-65
2021/12/23 08:47:03;;;;;;;29.85;16.58;;;2.50;93.30;;;;;;4968258;28;20062;-65
2021/12/23 08:49:28;;;;;;;33.42;17.25;;;2.50;93.30;;;;;;4973969;28;20027;-66
2021/12/23 08:51:54;;;;;;;29.13;17.20;;;2.50;93.20;;;;;;4968032;28;20035;-66
2021/12/23 08:54:20;;;;;;;29.80;16.60;;;2.60;93.30;;;;;;4959234;28;20438;-66
2021/12/23 08:56:46;;;;;;;29.25;16.58;;;2.60;93.30;;;;;;4962398;28;20027;-67
2021/12/23 08:59:12;;;;;;;33.53;16.75;;;2.60;93.20;;;;;;4971957;28;20066;-67
2021/12/23 09:01:40;;;;;;;31.88;18.23;;;2.60;93.20;;;;;;4971042;28;20054;-67
2021/12/23 09:04:05;;;;;;;28.30;16.27;;;2.60;93.20;;;;;;4973715;28;20073;-66
2021/12/23 09:06:30;;;;;;;28.92;16.55;;;2.60;93.20;;;;;;4967240;28;20418;-66
2021/12/23 09:08:57;;;;;;;34.60;17.17;;;2.60;93.10;;;;;;4968703;28;20035;-67
2021/12/23 09:11:23;;;;;;;28.02;16.13;;;2.60;93.10;;;;;;4972172;28;20467;-67
2021/12/23 09:13:49;;;;;;;32.17;16.77;;;2.60;93.10;;;;;;4963048;28;20043;-66
2021/12/23 09:16:14;;;;;;;36.40;17.10;;;2.60;93.10;;;;;;4964297;28;20035;-66
2021/12/23 09:18:39;;;;;;;26.50;16.77;;;2.60;93.10;;;;;;4972311;28;20030;-67
2021/12/23 09:21:05;;;;;;;28.80;17.17;;;2.70;93.10;;;;;;4968609;28;20450;-66
2021/12/23 09:23:32;;;;;;;30.75;17.77;;;2.70;93.10;;;;;;4973402;28;20034;-66
2021/12/23 09:25:57;;;;;;;27.65;15.52;;;2.70;93.10;;;;;;4972942;28;20055;-66
2021/12/23 09:28:33;;;;;;;28.00;16.42;;;2.70;93.10;;;;;;4958145;28;20015;-66
2021/12/23 09:33:45;;;;;;;30.25;15.55;;;2.80;93.00;;;;;;4974899;28;20026;-68
2021/12/23 09:36:11;;;;;;;29.02;16.23;;;2.80;93.00;;;;;;4972157;28;20451;-65
2021/12/23 09:38:37;;;;;;;29.13;17.55;;;2.80;93.00;;;;;;4969213;28;20055;-66
2021/12/23 09:41:13;;;;;;;28.60;15.98;;;2.80;93.00;;;;;;4971903;28;20061;-66
2021/12/23 09:43:40;;;;;;;27.52;16.35;;;2.80;93.00;;;;;;4973331;28;20030;-66
2021/12/23 09:46:09;;;;;;;27.60;15.57;;;2.90;93.00;;;;;;4971009;28;20126;-66
2021/12/23 09:48:34;;;;;;;33.40;16.30;;;2.90;92.90;;;;;;4972810;28;20445;-66
2021/12/23 09:51:04;;;;;;;27.80;15.60;;;3.00;92.90;;;;;;4972412;28;20038;-68
2021/12/23 09:53:31;;;;;;;29.95;15.85;;;3.10;92.90;;;;;;4970575;28;20027;-66
2021/12/23 09:55:58;;;;;;;26.40;16.20;;;3.00;92.80;;;;;;4971176;28;20097;-66
2021/12/23 09:58:24;;;;;;;29.20;16.85;;;3.10;92.80;;;;;;4967337;28;20620;-66
2021/12/23 10:00:50;;;;;;;26.83;15.45;;;3.10;92.80;;;;;;4954209;28;20127;-67
2021/12/23 10:03:18;;;;;;;26.42;14.45;;;3.20;92.70;;;;;;4959170;28;20114;-66
2021/12/23 10:05:45;;;;;;;26.85;15.43;;;3.10;92.70;;;;;;4958501;28;20047;-66
2021/12/23 10:08:13;;;;;;;25.50;15.32;;;3.20;92.70;;;;;;4968737;28;20033;-65
2021/12/23 10:26:51;;;;;;;25.77;14.75;;;3.30;92.60;;;;;;4963132;28;20031;-65
2021/12/23 10:28:22;;;;;;;27.25;16.33;;;3.30;92.40;;;;;;4958141;28;20506;-66
2021/12/23 10:38:16;;;;;;;26.23;14.55;;;3.40;92.40;;;;;;4967838;28;20078;-66
2021/12/23 10:40:46;;;;;;;27.20;15.30;;;3.40;92.40;;;;;;4956851;28;20516;-66
2021/12/23 10:43:30;;;;;;;27.48;14.65;;;3.40;92.30;;;;;;4967333;28;20031;-66
2021/12/23 10:46:11;;;;;;;27.90;15.10;;;3.50;92.40;;;;;;4969837;28;20489;-66
2021/12/23 10:48:47;;;;;;;25.77;14.70;;;3.50;92.40;;;;;;4969660;28;20515;-66
2021/12/23 10:51:17;;;;;;;24.20;14.50;;;3.50;92.30;;;;;;4961503;28;20030;-67
2021/12/23 10:53:54;;;;;;;27.10;14.82;;;3.50;92.30;;;;;;4962220;28;20035;-66
2021/12/23 10:59:12;;;;;;;36.60;14.38;;;3.50;92.20;;;;;;4963962;28;20450;-66
2021/12/23 11:01:59;;;;;;;26.25;14.65;;;3.50;92.20;;;;;;4970594;28;20417;-66
2021/12/23 11:04:25;;;;;;;22.30;12.82;;;3.60;92.20;;;;;;4956480;28;20034;-66
2021/12/23 11:07:11;;;;;;;21.95;13.45;;;3.60;92.20;;;;;;4963582;28;20039;-66
2021/12/23 11:09:54;;;;;;;25.35;14.00;;;3.70;92.20;;;;;;4970947;28;20066;-66
2021/12/23 11:27:31;;;;;;;28.05;13.88;;;3.80;92.10;;;;;;4970708;28;20033;-66
2021/12/23 11:35:34;;;;;;;20.95;11.95;;;3.90;92.00;;;;;;4963169;28;20132;-65
2021/12/23 11:37:55;;;;;;;22.10;12.65;;;3.90;91.90;;;;;;4956425;28;20046;-65
2021/12/23 11:45:28;;;;;;;24.00;13.75;;;4.00;91.80;;;;;;4964830;28;20038;-65
2021/12/23 11:47:55;;;;;;;24.35;13.45;;;4.10;91.80;;;;;;4965026;28;20050;-65
2021/12/23 11:50:30;;;;;;;24.05;13.48;;;4.10;91.70;;;;;;4966317;28;20127;-65
2021/12/23 11:52:56;;;;;;;26.02;13.10;;;4.10;91.70;;;;;;4967961;28;20049;-64
2021/12/23 11:55:21;;;;;;;24.67;12.90;;;4.20;91.70;;;;;;4969272;28;20466;-64
2021/12/23 11:57:48;;;;;;;20.38;12.65;;;4.20;91.60;;;;;;4970549;28;20409;-64
2021/12/23 12:00:21;;;;;;;26.08;13.48;;;4.20;91.60;;;;;;4968507;28;20059;-65
2021/12/23 12:03:04;;;;;;;24.85;12.95;;;4.20;91.50;;;;;;4964698;28;20066;-64
2021/12/23 12:05:32;;;;;;;29.83;14.70;;;4.20;91.50;;;;;;4971954;28;20062;-64
2021/12/23 12:08:10;;;;;;;27.80;13.43;;;4.30;91.60;;;;;;4973850;28;20041;-64
2021/12/23 12:10:37;;;;;;;25.48;13.65;;;4.40;91.50;;;;;;4973864;28;20045;-64
2021/12/23 12:13:08;;;;;;;22.13;12.60;;;4.40;91.50;;;;;;4963779;28;20043;-64
2021/12/23 12:15:37;;;;;;;21.35;13.80;;;4.40;91.40;;;;;;4972364;28;20329;-64
2021/12/23 12:18:05;;;;;;;23.33;13.45;;;4.50;91.40;;;;;;4974733;28;20173;-64
2021/12/23 12:20:37;;;;;;;20.33;12.35;;;4.50;91.30;;;;;;4970193;28;20046;-64
2021/12/23 12:23:07;;;;;;;20.27;10.95;;;4.50;91.30;;;;;;4970664;28;20351;-65
2021/12/23 12:25:38;;;;;;;19.17;11.77;;;4.60;91.30;;;;;;4967977;28;20672;-65
2021/12/23 12:28:04;;;;;;;18.90;12.40;;;4.60;91.20;;;;;;4956074;28;20035;-64
2021/12/23 12:30:43;;;;;;;19.83;12.38;;;4.70;91.20;;;;;;4968887;28;20034;-65
2021/12/23 12:33:13;;;;;;;22.17;12.68;;;4.70;91.00;;;;;;4973687;28;20029;-64
2021/12/23 12:35:41;;;;;;;22.88;11.80;;;4.60;91.00;;;;;;4958975;28;20368;-65
2021/12/23 12:38:18;;;;;;;19.75;12.63;;;4.70;91.00;;;;;;4969907;28;20110;-64
2021/12/23 12:41:05;;;;;;;19.92;12.20;;;4.70;90.90;;;;;;4961842;28;20041;-64
2021/12/23 12:43:46;;;;;;;19.42;12.20;;;4.70;90.90;;;;;;4973270;28;20019;-64
2021/12/23 12:46:39;;;;;;;18.23;11.43;;;4.70;90.90;;;;;;4965895;28;20486;-64
2021/12/23 12:49:17;;;;;;;17.45;11.05;;;4.70;90.80;;;;;;4974121;28;20043;-64
2021/12/23 12:51:47;;;;;;;20.35;12.98;;;4.70;90.80;;;;;;4968180;28;20240;-64
2021/12/23 12:54:17;;;;;;;19.85;12.05;;;4.70;90.80;;;;;;4958649;28;20085;-64
2021/12/23 12:56:49;;;;;;;18.48;10.63;;;4.70;90.80;;;;;;4971466;28;20057;-64
2021/12/23 12:59:17;;;;;;;18.92;13.07;;;4.70;90.70;;;;;;4972601;28;20097;-64
2021/12/23 13:01:48;;;;;;;18.95;12.60;;;4.80;90.70;;;;;;4973210;28;20084;-63
2021/12/23 13:04:31;;;;;;;19.63;11.80;;;4.80;90.60;;;;;;4968140;28;20533;-64
2021/12/23 13:06:58;;;;;;;20.45;12.07;;;4.70;90.70;;;;;;4970482;28;20043;-64
2021/12/23 13:09:29;;;;;;;19.33;11.90;;;4.70;90.70;;;;;;4966637;28;20074;-65
2021/12/23 13:11:59;;;;;;;19.60;11.85;;;4.70;90.70;;;;;;4972793;28;20039;-64
2021/12/23 13:15:15;;;;;;;21.88;13.20;;;4.80;90.70;;;;;;4969398;28;20097;-64
2021/12/23 13:17:47;;;;;;;17.85;11.43;;;4.80;90.70;;;;;;4972324;28;20407;-63
2021/12/23 13:20:15;;;;;;;17.85;12.13;;;4.80;90.60;;;;;;4973793;28;20037;-64
2021/12/23 13:22:42;;;;;;;20.20;12.13;;;4.80;90.60;;;;;;4969120;28;20067;-64
2021/12/23 13:25:09;;;;;;;18.77;11.00;;;4.80;90.60;;;;;;4965053;28;20033;-64
2021/12/23 13:27:38;;;;;;;20.33;12.77;;;4.80;90.60;;;;;;4973632;28;20035;-64
2021/12/23 13:30:07;;;;;;;20.48;12.00;;;4.80;90.60;;;;;;4973396;28;20114;-64
2021/12/23 13:32:33;;;;;;;20.30;12.57;;;4.80;90.60;;;;;;4972780;28;20394;-64
2021/12/23 13:35:13;;;;;;;20.60;12.30;;;4.80;90.60;;;;;;4973151;28;20043;-64
2021/12/23 13:37:46;;;;;;;18.73;12.20;;;4.80;90.60;;;;;;4967951;28;20473;-64
2021/12/23 13:40:26;;;;;;;26.98;12.93;;;4.80;90.60;;;;;;4962381;28;20037;-64
2021/12/23 13:42:52;;;;;;;17.65;12.15;;;4.80;90.60;;;;;;4965608;28;20019;-64